Startpagina
METAR-TAF:

METAR-TAF

Vliegvelden :

Karachi, Pakistan

breedte: 24-54N, lengte: 067-08E, hoogte: 21 m

Actueel weer

Dit bericht is 32 minuten geleden gemaakt, om 12:00 UTC
Wind 6 kt uit het westzuidwesten
Temperatuur 35°C
Vochtigheid 28%
Druk 1011 hPa
Zicht: 7000 m

METAR: OPKC 271200Z 25006KT 7000 NSC 35/14 Q1011 NOSIG

Tijdstip: 17:32 (12:32 UTC)

Verwachting

Dit bericht is 2 uur en het 32 minuten geleden gemaakt, om 10:00 UTC
Verwachting geldig van 27 om 12 UTC tot 28 om 18 UTC
Wind 10 kt uit het westen
Zicht: 6000 m
Tijdelijke
van 28 om 01 UTC tot 28 om 05 UTC
Wind 7 kt uit het westen
Zicht: 4000 m
rook
Wijzigt naar
van 28 om 06 UTC tot 28 om 08 UTC
Zicht: 7000 m

TAF: OPKC 271000Z 2712/2818 27010KT 6000 NSC TEMPO 2801/2805 28007KT 4000 FU NSC BECMG 2806/2808 25010G20KIT 7000 NSC

Waarnemingen en weersverwachtingen van meer dan 4000 vliegvelden (METAR en TAF).

De beschikbare stations zijn de gele en rode punten op de kaart.

Ga met uw muis naar het station om de naam te zien.

Klik dan om waarnemingen en weersverwachtingen te zien.

kaart wijzigen: klik op de groene knoppen met een zwart kruis om in te zoomen, op de groene knop met een streepje om uit te zoomen of op de groene pijlen voor aangrenzende kaarten.


METAR-TAF: